sensor_id;sensor_type;location;lat;lon;timestamp;P1;durP1;ratioP1;P2;durP2;ratioP2
3689;SDS011;1861;50.240;8.596;2023-08-12T00:00:24;3.75;;;3.30;;
3689;SDS011;1861;50.240;8.596;2023-08-12T00:02:52;4.68;;;3.28;;
3689;SDS011;1861;50.240;8.596;2023-08-12T00:05:21;4.60;;;2.97;;
3689;SDS011;1861;50.240;8.596;2023-08-12T00:07:49;3.70;;;3.40;;
3689;SDS011;1861;50.240;8.596;2023-08-12T00:10:17;3.30;;;2.95;;
3689;SDS011;1861;50.240;8.596;2023-08-12T00:12:46;6.15;;;4.35;;
3689;SDS011;1861;50.240;8.596;2023-08-12T00:15:15;3.97;;;3.10;;
3689;SDS011;1861;50.240;8.596;2023-08-12T00:17:43;6.18;;;3.47;;
3689;SDS011;1861;50.240;8.596;2023-08-12T00:20:11;4.57;;;3.22;;
3689;SDS011;1861;50.240;8.596;2023-08-12T00:22:40;5.35;;;3.35;;
3689;SDS011;1861;50.240;8.596;2023-08-12T00:25:08;4.43;;;3.53;;
3689;SDS011;1861;50.240;8.596;2023-08-12T00:27:36;3.63;;;3.10;;
3689;SDS011;1861;50.240;8.596;2023-08-12T00:30:05;4.13;;;3.35;;
3689;SDS011;1861;50.240;8.596;2023-08-12T00:32:36;4.82;;;3.83;;
3689;SDS011;1861;50.240;8.596;2023-08-12T00:35:05;7.53;;;3.35;;
3689;SDS011;1861;50.240;8.596;2023-08-12T00:37:33;4.22;;;3.05;;
3689;SDS011;1861;50.240;8.596;2023-08-12T00:40:02;3.88;;;3.47;;
3689;SDS011;1861;50.240;8.596;2023-08-12T00:42:30;4.68;;;3.83;;
3689;SDS011;1861;50.240;8.596;2023-08-12T00:44:59;4.95;;;3.28;;
3689;SDS011;1861;50.240;8.596;2023-08-12T00:47:28;5.28;;;3.35;;
3689;SDS011;1861;50.240;8.596;2023-08-12T00:49:59;5.22;;;3.40;;
3689;SDS011;1861;50.240;8.596;2023-08-12T00:52:27;8.00;;;3.17;;
3689;SDS011;1861;50.240;8.596;2023-08-12T00:54:55;5.90;;;3.45;;
3689;SDS011;1861;50.240;8.596;2023-08-12T00:57:23;6.50;;;3.30;;
3689;SDS011;1861;50.240;8.596;2023-08-12T00:59:52;4.57;;;3.10;;
3689;SDS011;1861;50.240;8.596;2023-08-12T01:02:21;5.75;;;3.15;;
3689;SDS011;1861;50.240;8.596;2023-08-12T01:04:49;4.18;;;3.00;;
3689;SDS011;1861;50.240;8.596;2023-08-12T01:07:18;4.22;;;3.60;;
3689;SDS011;1861;50.240;8.596;2023-08-12T01:09:47;4.40;;;3.28;;
3689;SDS011;1861;50.240;8.596;2023-08-12T01:12:16;6.50;;;3.47;;
3689;SDS011;1861;50.240;8.596;2023-08-12T01:14:54;7.85;;;3.03;;
3689;SDS011;1861;50.240;8.596;2023-08-12T01:17:26;4.13;;;3.60;;
3689;SDS011;1861;50.240;8.596;2023-08-12T01:19:57;5.22;;;3.25;;
3689;SDS011;1861;50.240;8.596;2023-08-12T01:22:28;3.70;;;2.80;;
3689;SDS011;1861;50.240;8.596;2023-08-12T01:25:01;4.05;;;3.17;;
3689;SDS011;1861;50.240;8.596;2023-08-12T01:27:29;3.97;;;3.38;;
3689;SDS011;1861;50.240;8.596;2023-08-12T01:29:57;9.77;;;3.50;;
3689;SDS011;1861;50.240;8.596;2023-08-12T01:32:27;4.50;;;3.50;;
3689;SDS011;1861;50.240;8.596;2023-08-12T01:35:03;3.97;;;3.38;;
3689;SDS011;1861;50.240;8.596;2023-08-12T01:37:34;5.85;;;3.55;;
3689;SDS011;1861;50.240;8.596;2023-08-12T01:40:07;8.77;;;3.38;;
3689;SDS011;1861;50.240;8.596;2023-08-12T01:42:37;4.82;;;3.25;;
3689;SDS011;1861;50.240;8.596;2023-08-12T01:45:07;5.35;;;3.42;;
3689;SDS011;1861;50.240;8.596;2023-08-12T01:47:35;3.78;;;3.33;;
3689;SDS011;1861;50.240;8.596;2023-08-12T01:50:05;3.33;;;3.03;;
3689;SDS011;1861;50.240;8.596;2023-08-12T01:52:34;8.35;;;3.58;;
3689;SDS011;1861;50.240;8.596;2023-08-12T01:55:02;6.03;;;3.10;;
3689;SDS011;1861;50.240;8.596;2023-08-12T01:57:32;3.40;;;3.10;;
3689;SDS011;1861;50.240;8.596;2023-08-12T02:00:03;3.50;;;3.20;;
3689;SDS011;1861;50.240;8.596;2023-08-12T02:02:42;4.13;;;3.47;;
3689;SDS011;1861;50.240;8.596;2023-08-12T02:05:12;4.70;;;3.40;;
3689;SDS011;1861;50.240;8.596;2023-08-12T02:07:41;6.55;;;3.63;;
3689;SDS011;1861;50.240;8.596;2023-08-12T02:10:09;6.10;;;3.60;;
3689;SDS011;1861;50.240;8.596;2023-08-12T02:12:39;3.90;;;3.15;;
3689;SDS011;1861;50.240;8.596;2023-08-12T02:15:07;10.57;;;3.55;;
3689;SDS011;1861;50.240;8.596;2023-08-12T02:17:36;3.88;;;3.10;;
3689;SDS011;1861;50.240;8.596;2023-08-12T02:20:04;6.63;;;3.60;;
3689;SDS011;1861;50.240;8.596;2023-08-12T02:22:33;3.58;;;3.28;;
3689;SDS011;1861;50.240;8.596;2023-08-12T02:25:02;4.95;;;3.33;;
3689;SDS011;1861;50.240;8.596;2023-08-12T02:27:31;4.72;;;3.15;;
3689;SDS011;1861;50.240;8.596;2023-08-12T02:30:00;8.57;;;3.25;;
3689;SDS011;1861;50.240;8.596;2023-08-12T02:32:28;4.45;;;3.30;;
3689;SDS011;1861;50.240;8.596;2023-08-12T02:34:57;9.07;;;3.17;;
3689;SDS011;1861;50.240;8.596;2023-08-12T02:37:25;5.55;;;4.10;;
3689;SDS011;1861;50.240;8.596;2023-08-12T02:39:53;6.05;;;3.97;;
3689;SDS011;1861;50.240;8.596;2023-08-12T02:42:21;7.30;;;3.15;;
3689;SDS011;1861;50.240;8.596;2023-08-12T02:44:49;5.63;;;3.70;;
3689;SDS011;1861;50.240;8.596;2023-08-12T02:47:19;4.35;;;3.35;;
3689;SDS011;1861;50.240;8.596;2023-08-12T02:49:47;7.65;;;3.55;;
3689;SDS011;1861;50.240;8.596;2023-08-12T02:52:15;5.40;;;3.53;;
3689;SDS011;1861;50.240;8.596;2023-08-12T02:54:43;9.27;;;3.75;;
3689;SDS011;1861;50.240;8.596;2023-08-12T02:57:11;5.93;;;4.07;;
3689;SDS011;1861;50.240;8.596;2023-08-12T02:59:39;7.10;;;3.20;;
3689;SDS011;1861;50.240;8.596;2023-08-12T03:02:08;4.18;;;3.50;;
3689;SDS011;1861;50.240;8.596;2023-08-12T03:04:38;5.80;;;3.90;;
3689;SDS011;1861;50.240;8.596;2023-08-12T03:07:06;8.18;;;4.03;;
3689;SDS011;1861;50.240;8.596;2023-08-12T03:09:34;7.65;;;3.75;;
3689;SDS011;1861;50.240;8.596;2023-08-12T03:12:03;4.95;;;3.60;;
3689;SDS011;1861;50.240;8.596;2023-08-12T03:14:31;4.93;;;4.18;;
3689;SDS011;1861;50.240;8.596;2023-08-12T03:17:01;5.07;;;3.97;;
3689;SDS011;1861;50.240;8.596;2023-08-12T03:19:31;5.32;;;4.00;;
3689;SDS011;1861;50.240;8.596;2023-08-12T03:22:01;7.45;;;4.05;;
3689;SDS011;1861;50.240;8.596;2023-08-12T03:24:30;4.93;;;4.13;;
3689;SDS011;1861;50.240;8.596;2023-08-12T03:26:58;6.10;;;4.75;;
3689;SDS011;1861;50.240;8.596;2023-08-12T03:29:28;5.40;;;4.00;;
3689;SDS011;1861;50.240;8.596;2023-08-12T03:31:58;14.50;;;4.20;;
3689;SDS011;1861;50.240;8.596;2023-08-12T03:34:27;12.88;;;4.03;;
3689;SDS011;1861;50.240;8.596;2023-08-12T03:36:56;6.80;;;4.30;;
3689;SDS011;1861;50.240;8.596;2023-08-12T03:39:27;7.65;;;4.25;;
3689;SDS011;1861;50.240;8.596;2023-08-12T03:41:57;5.65;;;4.18;;
3689;SDS011;1861;50.240;8.596;2023-08-12T03:44:26;7.10;;;4.20;;
3689;SDS011;1861;50.240;8.596;2023-08-12T03:46:55;6.75;;;4.47;;
3689;SDS011;1861;50.240;8.596;2023-08-12T03:49:25;5.93;;;4.53;;
3689;SDS011;1861;50.240;8.596;2023-08-12T03:51:53;8.15;;;4.88;;
3689;SDS011;1861;50.240;8.596;2023-08-12T03:54:21;7.80;;;4.75;;
3689;SDS011;1861;50.240;8.596;2023-08-12T03:56:51;8.77;;;5.53;;
3689;SDS011;1861;50.240;8.596;2023-08-12T03:59:19;10.43;;;5.18;;
3689;SDS011;1861;50.240;8.596;2023-08-12T04:01:47;7.70;;;5.50;;
3689;SDS011;1861;50.240;8.596;2023-08-12T04:04:16;10.60;;;5.65;;
3689;SDS011;1861;50.240;8.596;2023-08-12T04:06:44;10.45;;;5.22;;
3689;SDS011;1861;50.240;8.596;2023-08-12T04:09:15;6.30;;;5.05;;
3689;SDS011;1861;50.240;8.596;2023-08-12T04:11:43;7.55;;;4.90;;
3689;SDS011;1861;50.240;8.596;2023-08-12T04:14:13;10.07;;;5.35;;
3689;SDS011;1861;50.240;8.596;2023-08-12T04:16:42;9.63;;;4.45;;
3689;SDS011;1861;50.240;8.596;2023-08-12T04:19:10;4.38;;;3.97;;
3689;SDS011;1861;50.240;8.596;2023-08-12T04:21:39;5.10;;;4.20;;
3689;SDS011;1861;50.240;8.596;2023-08-12T04:24:07;7.53;;;4.35;;
3689;SDS011;1861;50.240;8.596;2023-08-12T04:26:36;5.38;;;4.03;;
3689;SDS011;1861;50.240;8.596;2023-08-12T04:29:04;5.07;;;4.07;;
3689;SDS011;1861;50.240;8.596;2023-08-12T04:31:37;5.72;;;4.20;;
3689;SDS011;1861;50.240;8.596;2023-08-12T04:34:05;6.55;;;3.90;;
3689;SDS011;1861;50.240;8.596;2023-08-12T04:36:34;6.60;;;3.92;;
3689;SDS011;1861;50.240;8.596;2023-08-12T04:39:04;4.30;;;3.58;;
3689;SDS011;1861;50.240;8.596;2023-08-12T04:41:32;5.60;;;4.05;;
3689;SDS011;1861;50.240;8.596;2023-08-12T04:44:03;5.20;;;4.35;;
3689;SDS011;1861;50.240;8.596;2023-08-12T04:46:32;6.25;;;3.65;;
3689;SDS011;1861;50.240;8.596;2023-08-12T04:49:01;4.57;;;3.42;;
3689;SDS011;1861;50.240;8.596;2023-08-12T04:51:30;6.18;;;4.45;;
3689;SDS011;1861;50.240;8.596;2023-08-12T04:53:58;5.85;;;4.15;;
3689;SDS011;1861;50.240;8.596;2023-08-12T04:56:28;4.32;;;3.72;;
3689;SDS011;1861;50.240;8.596;2023-08-12T04:58:56;4.88;;;4.05;;
3689;SDS011;1861;50.240;8.596;2023-08-12T05:01:24;5.28;;;4.20;;
3689;SDS011;1861;50.240;8.596;2023-08-12T05:03:54;6.85;;;4.68;;
3689;SDS011;1861;50.240;8.596;2023-08-12T05:06:23;5.57;;;4.10;;
3689;SDS011;1861;50.240;8.596;2023-08-12T05:08:52;7.10;;;4.65;;
3689;SDS011;1861;50.240;8.596;2023-08-12T05:11:21;9.38;;;4.85;;
3689;SDS011;1861;50.240;8.596;2023-08-12T05:13:50;7.22;;;5.40;;
3689;SDS011;1861;50.240;8.596;2023-08-12T05:16:18;8.40;;;5.47;;
3689;SDS011;1861;50.240;8.596;2023-08-12T05:18:47;7.97;;;5.78;;
3689;SDS011;1861;50.240;8.596;2023-08-12T05:21:15;6.55;;;5.78;;
3689;SDS011;1861;50.240;8.596;2023-08-12T05:23:44;6.55;;;4.90;;
3689;SDS011;1861;50.240;8.596;2023-08-12T05:26:12;10.15;;;6.00;;
3689;SDS011;1861;50.240;8.596;2023-08-12T05:28:41;9.48;;;5.50;;
3689;SDS011;1861;50.240;8.596;2023-08-12T05:31:09;15.48;;;6.60;;
3689;SDS011;1861;50.240;8.596;2023-08-12T05:33:37;17.08;;;6.53;;
3689;SDS011;1861;50.240;8.596;2023-08-12T05:36:05;7.15;;;5.63;;
3689;SDS011;1861;50.240;8.596;2023-08-12T05:38:33;8.45;;;6.35;;
3689;SDS011;1861;50.240;8.596;2023-08-12T05:41:02;9.35;;;6.20;;
3689;SDS011;1861;50.240;8.596;2023-08-12T05:43:33;9.80;;;6.43;;
3689;SDS011;1861;50.240;8.596;2023-08-12T05:46:01;12.98;;;6.85;;
3689;SDS011;1861;50.240;8.596;2023-08-12T05:48:29;11.32;;;7.07;;
3689;SDS011;1861;50.240;8.596;2023-08-12T05:50:58;10.63;;;6.53;;
3689;SDS011;1861;50.240;8.596;2023-08-12T05:53:26;7.50;;;6.18;;
3689;SDS011;1861;50.240;8.596;2023-08-12T05:55:54;10.05;;;5.97;;
3689;SDS011;1861;50.240;8.596;2023-08-12T05:58:23;11.27;;;7.13;;
3689;SDS011;1861;50.240;8.596;2023-08-12T06:00:51;10.48;;;6.43;;
3689;SDS011;1861;50.240;8.596;2023-08-12T06:03:20;13.13;;;7.65;;
3689;SDS011;1861;50.240;8.596;2023-08-12T06:05:48;11.85;;;6.68;;
3689;SDS011;1861;50.240;8.596;2023-08-12T06:08:16;10.18;;;6.20;;
3689;SDS011;1861;50.240;8.596;2023-08-12T06:10:44;14.45;;;6.72;;
3689;SDS011;1861;50.240;8.596;2023-08-12T06:13:13;12.77;;;6.93;;
3689;SDS011;1861;50.240;8.596;2023-08-12T06:15:42;9.52;;;6.30;;
3689;SDS011;1861;50.240;8.596;2023-08-12T06:18:10;9.00;;;6.40;;
3689;SDS011;1861;50.240;8.596;2023-08-12T06:20:38;8.68;;;6.88;;
3689;SDS011;1861;50.240;8.596;2023-08-12T06:23:06;12.00;;;8.38;;
3689;SDS011;1861;50.240;8.596;2023-08-12T06:25:35;12.43;;;7.43;;
3689;SDS011;1861;50.240;8.596;2023-08-12T06:28:03;13.18;;;7.78;;
3689;SDS011;1861;50.240;8.596;2023-08-12T06:30:31;11.57;;;7.47;;
3689;SDS011;1861;50.240;8.596;2023-08-12T06:33:01;9.80;;;6.75;;
3689;SDS011;1861;50.240;8.596;2023-08-12T06:35:29;11.15;;;7.35;;
3689;SDS011;1861;50.240;8.596;2023-08-12T06:37:57;11.48;;;7.45;;
3689;SDS011;1861;50.240;8.596;2023-08-12T06:40:26;12.55;;;7.07;;
3689;SDS011;1861;50.240;8.596;2023-08-12T06:42:54;12.50;;;7.63;;
3689;SDS011;1861;50.240;8.596;2023-08-12T06:45:22;18.33;;;8.18;;
3689;SDS011;1861;50.240;8.596;2023-08-12T06:47:50;13.80;;;7.70;;
3689;SDS011;1861;50.240;8.596;2023-08-12T06:50:20;11.77;;;8.20;;
3689;SDS011;1861;50.240;8.596;2023-08-12T06:52:48;11.90;;;8.20;;
3689;SDS011;1861;50.240;8.596;2023-08-12T06:55:16;13.20;;;7.40;;
3689;SDS011;1861;50.240;8.596;2023-08-12T06:57:44;12.50;;;7.60;;
3689;SDS011;1861;50.240;8.596;2023-08-12T07:00:13;12.10;;;8.00;;
3689;SDS011;1861;50.240;8.596;2023-08-12T07:02:41;17.85;;;9.38;;
3689;SDS011;1861;50.240;8.596;2023-08-12T07:05:09;14.50;;;8.65;;
3689;SDS011;1861;50.240;8.596;2023-08-12T07:07:39;16.33;;;9.80;;
3689;SDS011;1861;50.240;8.596;2023-08-12T07:10:07;12.75;;;9.02;;
3689;SDS011;1861;50.240;8.596;2023-08-12T07:12:35;13.50;;;8.95;;
3689;SDS011;1861;50.240;8.596;2023-08-12T07:15:04;11.38;;;8.35;;
3689;SDS011;1861;50.240;8.596;2023-08-12T07:17:32;16.02;;;8.95;;
3689;SDS011;1861;50.240;8.596;2023-08-12T07:20:01;14.65;;;8.82;;
3689;SDS011;1861;50.240;8.596;2023-08-12T07:22:30;8.52;;;6.60;;
3689;SDS011;1861;50.240;8.596;2023-08-12T07:25:00;12.13;;;7.55;;
3689;SDS011;1861;50.240;8.596;2023-08-12T07:27:28;10.27;;;7.07;;
3689;SDS011;1861;50.240;8.596;2023-08-12T07:29:56;11.63;;;7.75;;
3689;SDS011;1861;50.240;8.596;2023-08-12T07:32:24;18.17;;;10.32;;
3689;SDS011;1861;50.240;8.596;2023-08-12T07:34:52;14.50;;;8.75;;
3689;SDS011;1861;50.240;8.596;2023-08-12T07:37:20;11.95;;;7.00;;
3689;SDS011;1861;50.240;8.596;2023-08-12T07:39:48;10.60;;;7.22;;
3689;SDS011;1861;50.240;8.596;2023-08-12T07:42:18;12.13;;;7.95;;
3689;SDS011;1861;50.240;8.596;2023-08-12T07:44:47;9.93;;;7.18;;
3689;SDS011;1861;50.240;8.596;2023-08-12T07:47:15;11.15;;;7.43;;
3689;SDS011;1861;50.240;8.596;2023-08-12T07:49:43;11.27;;;6.35;;
3689;SDS011;1861;50.240;8.596;2023-08-12T07:52:12;14.13;;;7.90;;
3689;SDS011;1861;50.240;8.596;2023-08-12T07:54:40;11.23;;;7.87;;
3689;SDS011;1861;50.240;8.596;2023-08-12T07:57:08;11.00;;;7.93;;
3689;SDS011;1861;50.240;8.596;2023-08-12T07:59:38;13.80;;;8.00;;
3689;SDS011;1861;50.240;8.596;2023-08-12T08:02:06;11.18;;;8.00;;
3689;SDS011;1861;50.240;8.596;2023-08-12T08:04:34;13.88;;;8.80;;
3689;SDS011;1861;50.240;8.596;2023-08-12T08:07:02;10.98;;;8.15;;
3689;SDS011;1861;50.240;8.596;2023-08-12T08:09:30;11.82;;;8.10;;
3689;SDS011;1861;50.240;8.596;2023-08-12T08:12:00;12.27;;;7.13;;
3689;SDS011;1861;50.240;8.596;2023-08-12T08:14:28;16.38;;;7.53;;
3689;SDS011;1861;50.240;8.596;2023-08-12T08:16:57;10.27;;;7.22;;
3689;SDS011;1861;50.240;8.596;2023-08-12T08:19:26;12.18;;;6.63;;
3689;SDS011;1861;50.240;8.596;2023-08-12T08:21:56;10.63;;;6.53;;
3689;SDS011;1861;50.240;8.596;2023-08-12T08:24:24;13.00;;;6.97;;
3689;SDS011;1861;50.240;8.596;2023-08-12T08:26:52;16.35;;;8.20;;
3689;SDS011;1861;50.240;8.596;2023-08-12T08:29:20;9.55;;;7.28;;
3689;SDS011;1861;50.240;8.596;2023-08-12T08:31:50;20.63;;;8.82;;
3689;SDS011;1861;50.240;8.596;2023-08-12T08:34:19;37.25;;;13.63;;
3689;SDS011;1861;50.240;8.596;2023-08-12T08:36:47;14.15;;;8.85;;
3689;SDS011;1861;50.240;8.596;2023-08-12T08:39:16;16.63;;;7.65;;
3689;SDS011;1861;50.240;8.596;2023-08-12T08:41:44;11.82;;;7.78;;
3689;SDS011;1861;50.240;8.596;2023-08-12T08:44:15;11.65;;;7.75;;
3689;SDS011;1861;50.240;8.596;2023-08-12T08:46:45;14.00;;;8.10;;
3689;SDS011;1861;50.240;8.596;2023-08-12T08:49:14;11.82;;;8.38;;
3689;SDS011;1861;50.240;8.596;2023-08-12T08:51:44;13.00;;;9.05;;
3689;SDS011;1861;50.240;8.596;2023-08-12T08:54:14;11.48;;;8.15;;
3689;SDS011;1861;50.240;8.596;2023-08-12T08:56:43;13.53;;;7.67;;
3689;SDS011;1861;50.240;8.596;2023-08-12T08:59:19;11.05;;;6.95;;
3689;SDS011;1861;50.240;8.596;2023-08-12T09:01:48;7.47;;;5.72;;
3689;SDS011;1861;50.240;8.596;2023-08-12T09:04:17;8.65;;;6.70;;
3689;SDS011;1861;50.240;8.596;2023-08-12T09:06:49;10.88;;;7.63;;
3689;SDS011;1861;50.240;8.596;2023-08-12T09:09:20;8.98;;;6.55;;
3689;SDS011;1861;50.240;8.596;2023-08-12T09:11:50;12.23;;;8.02;;
3689;SDS011;1861;50.240;8.596;2023-08-12T09:14:20;13.15;;;8.63;;
3689;SDS011;1861;50.240;8.596;2023-08-12T09:16:48;13.45;;;8.40;;
3689;SDS011;1861;50.240;8.596;2023-08-12T09:19:16;14.35;;;7.55;;
3689;SDS011;1861;50.240;8.596;2023-08-12T09:21:45;10.13;;;7.43;;
3689;SDS011;1861;50.240;8.596;2023-08-12T09:24:23;8.63;;;6.65;;
3689;SDS011;1861;50.240;8.596;2023-08-12T09:26:51;7.22;;;5.70;;
3689;SDS011;1861;50.240;8.596;2023-08-12T09:29:21;9.53;;;5.97;;
3689;SDS011;1861;50.240;8.596;2023-08-12T09:31:50;6.32;;;5.72;;
3689;SDS011;1861;50.240;8.596;2023-08-12T09:34:19;11.50;;;6.18;;
3689;SDS011;1861;50.240;8.596;2023-08-12T09:36:47;8.70;;;5.82;;
3689;SDS011;1861;50.240;8.596;2023-08-12T09:39:16;8.30;;;5.63;;
3689;SDS011;1861;50.240;8.596;2023-08-12T09:41:46;7.88;;;5.05;;
3689;SDS011;1861;50.240;8.596;2023-08-12T09:44:14;6.70;;;4.47;;
3689;SDS011;1861;50.240;8.596;2023-08-12T09:46:43;6.75;;;5.00;;
3689;SDS011;1861;50.240;8.596;2023-08-12T09:49:11;6.60;;;5.05;;
3689;SDS011;1861;50.240;8.596;2023-08-12T09:51:39;6.82;;;4.63;;
3689;SDS011;1861;50.240;8.596;2023-08-12T09:54:10;6.22;;;4.97;;
3689;SDS011;1861;50.240;8.596;2023-08-12T09:56:44;8.52;;;5.63;;
3689;SDS011;1861;50.240;8.596;2023-08-12T09:59:16;8.52;;;4.95;;
3689;SDS011;1861;50.240;8.596;2023-08-12T10:01:48;7.13;;;4.50;;
3689;SDS011;1861;50.240;8.596;2023-08-12T10:04:18;5.15;;;4.30;;
3689;SDS011;1861;50.240;8.596;2023-08-12T10:06:49;4.70;;;3.80;;
3689;SDS011;1861;50.240;8.596;2023-08-12T10:09:17;4.70;;;3.60;;
3689;SDS011;1861;50.240;8.596;2023-08-12T10:11:48;5.05;;;4.20;;
3689;SDS011;1861;50.240;8.596;2023-08-12T10:14:18;7.53;;;4.28;;
3689;SDS011;1861;50.240;8.596;2023-08-12T10:16:47;5.95;;;4.35;;
3689;SDS011;1861;50.240;8.596;2023-08-12T10:19:16;10.35;;;5.20;;
3689;SDS011;1861;50.240;8.596;2023-08-12T10:21:45;8.02;;;5.78;;
3689;SDS011;1861;50.240;8.596;2023-08-12T10:24:14;5.97;;;4.88;;
3689;SDS011;1861;50.240;8.596;2023-08-12T10:26:44;7.88;;;5.03;;
3689;SDS011;1861;50.240;8.596;2023-08-12T10:29:14;7.18;;;4.70;;
3689;SDS011;1861;50.240;8.596;2023-08-12T10:31:43;9.75;;;4.80;;
3689;SDS011;1861;50.240;8.596;2023-08-12T10:34:17;4.93;;;4.30;;
3689;SDS011;1861;50.240;8.596;2023-08-12T10:36:46;4.45;;;3.70;;
3689;SDS011;1861;50.240;8.596;2023-08-12T10:39:28;4.57;;;3.72;;
3689;SDS011;1861;50.240;8.596;2023-08-12T10:41:58;5.75;;;4.63;;
3689;SDS011;1861;50.240;8.596;2023-08-12T10:44:37;6.45;;;3.97;;
3689;SDS011;1861;50.240;8.596;2023-08-12T10:47:07;4.90;;;3.90;;
3689;SDS011;1861;50.240;8.596;2023-08-12T10:49:42;7.90;;;4.72;;
3689;SDS011;1861;50.240;8.596;2023-08-12T10:52:19;14.07;;;6.03;;
3689;SDS011;1861;50.240;8.596;2023-08-12T10:54:54;10.02;;;4.88;;
3689;SDS011;1861;50.240;8.596;2023-08-12T10:57:34;9.88;;;6.63;;
3689;SDS011;1861;50.240;8.596;2023-08-12T11:00:06;11.48;;;6.90;;
3689;SDS011;1861;50.240;8.596;2023-08-12T11:02:39;11.27;;;7.68;;
3689;SDS011;1861;50.240;8.596;2023-08-12T11:05:11;10.98;;;6.03;;
3689;SDS011;1861;50.240;8.596;2023-08-12T11:07:41;10.77;;;5.80;;
3689;SDS011;1861;50.240;8.596;2023-08-12T11:10:11;8.55;;;6.85;;
3689;SDS011;1861;50.240;8.596;2023-08-12T11:12:41;11.05;;;8.98;;
3689;SDS011;1861;50.240;8.596;2023-08-12T11:15:17;11.75;;;7.85;;
3689;SDS011;1861;50.240;8.596;2023-08-12T11:17:46;12.82;;;8.30;;
3689;SDS011;1861;50.240;8.596;2023-08-12T11:20:15;20.90;;;8.55;;
3689;SDS011;1861;50.240;8.596;2023-08-12T11:22:43;11.02;;;7.60;;
3689;SDS011;1861;50.240;8.596;2023-08-12T11:25:13;14.25;;;7.38;;
3689;SDS011;1861;50.240;8.596;2023-08-12T11:27:44;11.57;;;7.60;;
3689;SDS011;1861;50.240;8.596;2023-08-12T11:30:14;13.30;;;7.72;;
3689;SDS011;1861;50.240;8.596;2023-08-12T11:32:45;13.85;;;7.00;;
3689;SDS011;1861;50.240;8.596;2023-08-12T11:35:15;13.27;;;7.80;;
3689;SDS011;1861;50.240;8.596;2023-08-12T11:37:45;8.57;;;7.15;;
3689;SDS011;1861;50.240;8.596;2023-08-12T11:40:14;13.00;;;6.50;;
3689;SDS011;1861;50.240;8.596;2023-08-12T11:42:44;10.77;;;6.53;;
3689;SDS011;1861;50.240;8.596;2023-08-12T11:45:14;11.32;;;5.80;;
3689;SDS011;1861;50.240;8.596;2023-08-12T11:47:45;5.75;;;5.03;;
3689;SDS011;1861;50.240;8.596;2023-08-12T11:50:19;10.43;;;5.07;;
3689;SDS011;1861;50.240;8.596;2023-08-12T11:52:48;9.57;;;5.88;;
3689;SDS011;1861;50.240;8.596;2023-08-12T11:55:17;7.18;;;5.38;;
3689;SDS011;1861;50.240;8.596;2023-08-12T11:57:46;10.63;;;6.57;;
3689;SDS011;1861;50.240;8.596;2023-08-12T12:00:14;7.53;;;5.30;;
3689;SDS011;1861;50.240;8.596;2023-08-12T12:02:47;5.97;;;5.03;;
3689;SDS011;1861;50.240;8.596;2023-08-12T12:05:17;7.93;;;4.82;;
3689;SDS011;1861;50.240;8.596;2023-08-12T12:07:50;7.97;;;4.53;;
3689;SDS011;1861;50.240;8.596;2023-08-12T12:10:19;5.95;;;4.25;;
3689;SDS011;1861;50.240;8.596;2023-08-12T12:12:49;5.85;;;4.15;;
3689;SDS011;1861;50.240;8.596;2023-08-12T12:15:17;6.30;;;4.47;;
3689;SDS011;1861;50.240;8.596;2023-08-12T12:17:47;6.38;;;4.45;;
3689;SDS011;1861;50.240;8.596;2023-08-12T12:20:16;4.50;;;3.92;;
3689;SDS011;1861;50.240;8.596;2023-08-12T12:22:46;6.68;;;4.28;;
3689;SDS011;1861;50.240;8.596;2023-08-12T12:25:15;5.38;;;3.85;;
3689;SDS011;1861;50.240;8.596;2023-08-12T12:27:45;4.20;;;3.45;;
3689;SDS011;1861;50.240;8.596;2023-08-12T12:30:14;5.55;;;3.92;;
3689;SDS011;1861;50.240;8.596;2023-08-12T12:32:43;5.55;;;3.58;;
3689;SDS011;1861;50.240;8.596;2023-08-12T12:35:13;5.70;;;4.22;;
3689;SDS011;1861;50.240;8.596;2023-08-12T12:37:42;3.25;;;2.95;;
3689;SDS011;1861;50.240;8.596;2023-08-12T12:40:10;5.80;;;3.85;;
3689;SDS011;1861;50.240;8.596;2023-08-12T12:42:39;5.72;;;2.90;;
3689;SDS011;1861;50.240;8.596;2023-08-12T12:45:07;5.53;;;4.35;;
3689;SDS011;1861;50.240;8.596;2023-08-12T12:47:36;3.22;;;2.92;;
3689;SDS011;1861;50.240;8.596;2023-08-12T12:50:05;3.13;;;2.85;;
3689;SDS011;1861;50.240;8.596;2023-08-12T12:52:35;3.28;;;2.97;;
3689;SDS011;1861;50.240;8.596;2023-08-12T12:55:04;2.78;;;2.58;;
3689;SDS011;1861;50.240;8.596;2023-08-12T12:57:32;4.53;;;2.90;;
3689;SDS011;1861;50.240;8.596;2023-08-12T13:00:00;3.50;;;3.17;;
3689;SDS011;1861;50.240;8.596;2023-08-12T13:02:30;3.55;;;3.13;;
3689;SDS011;1861;50.240;8.596;2023-08-12T13:04:59;3.33;;;2.53;;
3689;SDS011;1861;50.240;8.596;2023-08-12T13:07:27;3.55;;;2.90;;
3689;SDS011;1861;50.240;8.596;2023-08-12T13:09:56;2.95;;;2.67;;
3689;SDS011;1861;50.240;8.596;2023-08-12T13:12:24;2.67;;;2.47;;
3689;SDS011;1861;50.240;8.596;2023-08-12T13:14:53;3.80;;;2.67;;
3689;SDS011;1861;50.240;8.596;2023-08-12T13:17:21;4.20;;;2.85;;
3689;SDS011;1861;50.240;8.596;2023-08-12T13:19:49;3.30;;;3.00;;
3689;SDS011;1861;50.240;8.596;2023-08-12T13:22:17;3.55;;;2.78;;
3689;SDS011;1861;50.240;8.596;2023-08-12T13:24:45;3.92;;;2.72;;
3689;SDS011;1861;50.240;8.596;2023-08-12T13:27:15;2.97;;;2.67;;
3689;SDS011;1861;50.240;8.596;2023-08-12T13:29:43;2.75;;;2.50;;
3689;SDS011;1861;50.240;8.596;2023-08-12T13:32:11;3.47;;;2.63;;
3689;SDS011;1861;50.240;8.596;2023-08-12T13:34:41;2.88;;;2.58;;
3689;SDS011;1861;50.240;8.596;2023-08-12T13:37:12;3.20;;;2.67;;
3689;SDS011;1861;50.240;8.596;2023-08-12T13:39:41;3.45;;;2.58;;
3689;SDS011;1861;50.240;8.596;2023-08-12T13:42:09;3.17;;;2.88;;
3689;SDS011;1861;50.240;8.596;2023-08-12T13:44:39;3.10;;;2.80;;
3689;SDS011;1861;50.240;8.596;2023-08-12T13:47:07;3.50;;;2.78;;
3689;SDS011;1861;50.240;8.596;2023-08-12T13:49:35;2.67;;;2.47;;
3689;SDS011;1861;50.240;8.596;2023-08-12T13:52:03;3.03;;;2.72;;
3689;SDS011;1861;50.240;8.596;2023-08-12T13:54:32;3.20;;;2.90;;
3689;SDS011;1861;50.240;8.596;2023-08-12T13:57:00;3.10;;;2.80;;
3689;SDS011;1861;50.240;8.596;2023-08-12T13:59:28;3.22;;;2.83;;
3689;SDS011;1861;50.240;8.596;2023-08-12T14:01:58;7.40;;;3.08;;
3689;SDS011;1861;50.240;8.596;2023-08-12T14:04:26;3.42;;;2.60;;
3689;SDS011;1861;50.240;8.596;2023-08-12T14:06:54;2.42;;;2.22;;
3689;SDS011;1861;50.240;8.596;2023-08-12T14:09:22;3.90;;;2.67;;
3689;SDS011;1861;50.240;8.596;2023-08-12T14:11:50;3.50;;;3.17;;
3689;SDS011;1861;50.240;8.596;2023-08-12T14:14:18;3.47;;;2.60;;
3689;SDS011;1861;50.240;8.596;2023-08-12T14:16:46;2.65;;;2.45;;
3689;SDS011;1861;50.240;8.596;2023-08-12T14:19:16;3.80;;;2.55;;
3689;SDS011;1861;50.240;8.596;2023-08-12T14:21:45;2.67;;;2.47;;
3689;SDS011;1861;50.240;8.596;2023-08-12T14:24:13;3.10;;;2.80;;
3689;SDS011;1861;50.240;8.596;2023-08-12T14:26:41;2.45;;;2.25;;
3689;SDS011;1861;50.240;8.596;2023-08-12T14:29:09;4.00;;;2.70;;
3689;SDS011;1861;50.240;8.596;2023-08-12T14:31:37;2.90;;;2.47;;
3689;SDS011;1861;50.240;8.596;2023-08-12T14:34:06;2.40;;;2.20;;
3689;SDS011;1861;50.240;8.596;2023-08-12T14:36:35;4.40;;;2.30;;
3689;SDS011;1861;50.240;8.596;2023-08-12T14:39:04;2.30;;;2.10;;
3689;SDS011;1861;50.240;8.596;2023-08-12T14:41:32;3.72;;;2.90;;
3689;SDS011;1861;50.240;8.596;2023-08-12T14:44:00;3.30;;;2.55;;
3689;SDS011;1861;50.240;8.596;2023-08-12T14:46:29;3.72;;;2.70;;
3689;SDS011;1861;50.240;8.596;2023-08-12T14:48:57;2.40;;;2.20;;
3689;SDS011;1861;50.240;8.596;2023-08-12T14:51:25;2.53;;;2.33;;
3689;SDS011;1861;50.240;8.596;2023-08-12T14:53:57;2.35;;;2.00;;
3689;SDS011;1861;50.240;8.596;2023-08-12T14:56:25;3.28;;;2.35;;
3689;SDS011;1861;50.240;8.596;2023-08-12T14:58:53;5.20;;;2.60;;
3689;SDS011;1861;50.240;8.596;2023-08-12T15:01:21;6.07;;;2.40;;
3689;SDS011;1861;50.240;8.596;2023-08-12T15:03:51;3.47;;;2.60;;
3689;SDS011;1861;50.240;8.596;2023-08-12T15:06:21;4.80;;;2.63;;
3689;SDS011;1861;50.240;8.596;2023-08-12T15:08:49;3.53;;;3.00;;
3689;SDS011;1861;50.240;8.596;2023-08-12T15:11:19;2.72;;;2.53;;
3689;SDS011;1861;50.240;8.596;2023-08-12T15:13:47;4.13;;;2.50;;
3689;SDS011;1861;50.240;8.596;2023-08-12T15:16:15;5.22;;;2.83;;
3689;SDS011;1861;50.240;8.596;2023-08-12T15:18:43;2.00;;;1.90;;
3689;SDS011;1861;50.240;8.596;2023-08-12T15:21:11;2.50;;;2.15;;